Time;durP1;ratioP1;P1;durP2;ratioP2;P2;SDS_P1;SDS_P2;PMS_P1;PMS_P2;Temp;Humidity;BMP_temperature;BMP_pressure;BME280_temperature;BME280_humidity;BME280_pressure;Samples;Min_cycle;Max_cycle;Signal;HPM_P1;HPM_P2
2023/09/18 00:00:16;;;;;;;;;;;;;;;20.26;100.00;99904.63;5010721;28;19956;-79
2023/09/18 00:02:42;;;;;;;;;;;;;;;20.22;100.00;99884.59;5012687;28;19976;-78
2023/09/18 00:05:08;;;;;;;;;;;;;;;20.24;100.00;99883.38;5014698;28;19936;-77
2023/09/18 00:07:33;;;;;;;;;;;;;;;20.28;100.00;99873.09;5014954;28;19922;-77
2023/09/18 00:09:59;;;;;;;;;;;;;;;20.34;100.00;99869.66;5014323;28;20012;-77
2023/09/18 00:12:24;;;;;;;;;;;;;;;20.35;100.00;99857.91;5014553;28;19999;-79
2023/09/18 00:14:50;;;;;;;;;;;;;;;20.37;100.00;99871.94;5015095;28;20016;-77
2023/09/18 00:17:16;;;;;;;;;;;;;;;20.35;100.00;99877.50;5017030;28;19979;-78
2023/09/18 00:19:42;;;;;;;;;;;;;;;20.34;100.00;99870.47;5015198;28;19932;-78
2023/09/18 00:22:08;;;;;;;;;;;;;;;20.36;100.00;99859.56;5014737;28;19933;-77
2023/09/18 00:24:33;;;;;;;;;;;;;;;20.36;100.00;99848.84;5013298;28;19928;-77
2023/09/18 00:26:59;;;;;;;;;;;;;;;20.36;100.00;99859.56;5014019;28;19921;-78
2023/09/18 00:29:24;;;;;;;;;;;;;;;20.32;100.00;99877.09;5012916;28;19925;-77
2023/09/18 00:31:49;;;;;;;;;;;;;;;20.25;100.00;99885.03;5014558;28;20413;-78
2023/09/18 00:34:15;;;;;;;;;;;;;;;20.19;100.00;99868.94;5014227;28;20313;-78
2023/09/18 00:36:40;;;;;;;;;;;;;;;20.16;100.00;99850.56;5021698;28;19980;-78
2023/09/18 00:39:06;;;;;;;;;;;;;;;20.16;100.00;99847.88;5003236;28;19925;-77
2023/09/18 00:41:32;;;;;;;;;;;;;;;20.19;100.00;99831.41;5019880;28;19922;-77
2023/09/18 00:43:57;;;;;;;;;;;;;;;20.21;100.00;99813.25;5003341;28;19956;-77
2023/09/18 00:46:23;;;;;;;;;;;;;;;20.20;100.00;99807.09;5018407;28;19945;-77
2023/09/18 00:48:48;;;;;;;;;;;;;;;20.21;100.00;99791.84;5006192;28;19975;-77
2023/09/18 00:51:14;;;;;;;;;;;;;;;20.26;100.00;99794.78;5002518;28;19918;-78
2023/09/18 00:53:43;;;;;;;;;;;;;;;20.31;100.00;99803.03;5025097;28;19936;-77
2023/09/18 00:56:10;;;;;;;;;;;;;;;20.29;100.00;99794.34;5003198;28;19925;-77
2023/09/18 00:58:35;;;;;;;;;;;;;;;20.26;100.00;99792.88;5002277;28;19925;-77
2023/09/18 01:01:00;;;;;;;;;;;;;;;20.27;100.00;99785.69;5001718;28;20413;-76
2023/09/18 01:03:26;;;;;;;;;;;;;;;20.31;100.00;99792.31;5016035;28;19922;-77
2023/09/18 01:05:51;;;;;;;;;;;;;;;20.27;100.00;99786.50;5005442;28;19921;-77
2023/09/18 01:08:17;;;;;;;;;;;;;;;20.29;100.00;99783.63;5017472;28;19926;-77
2023/09/18 01:10:53;;;;;;;;;;;;;;;20.33;100.00;99784.91;5020770;28;19948;-77
2023/09/18 01:13:23;;;;;;;;;;;;;;;20.33;100.00;99795.63;5013158;28;20377;-78
2023/09/18 01:15:52;;;;;;;;;;;;;;;20.26;100.00;99802.81;5010815;28;20358;-77
2023/09/18 01:18:18;;;;;;;;;;;;;;;20.28;100.00;99808.78;5010088;28;19936;-78
2023/09/18 01:20:44;;;;;;;;;;;;;;;20.27;100.00;99824.03;5014183;28;19988;-78
2023/09/18 01:23:11;;;;;;;;;;;;;;;20.20;100.00;99827.72;5014232;28;20023;-79
2023/09/18 01:25:36;;;;;;;;;;;;;;;20.17;100.00;99822.72;5013705;28;20290;-78
2023/09/18 01:28:02;;;;;;;;;;;;;;;20.16;100.00;99811.19;5013350;28;19921;-79
2023/09/18 01:30:27;;;;;;;;;;;;;;;20.15;100.00;99798.81;5013669;28;19928;-78
2023/09/18 01:32:54;;;;;;;;;;;;;;;20.16;100.00;99786.25;5013880;28;19921;-78
2023/09/18 01:35:20;;;;;;;;;;;;;;;20.13;100.00;99781.31;5012949;28;19970;-78
2023/09/18 01:37:46;;;;;;;;;;;;;;;20.07;100.00;99774.06;5009749;28;19929;-78
2023/09/18 01:40:11;;;;;;;;;;;;;;;20.01;100.00;99779.19;5012896;28;19922;-77
2023/09/18 01:42:37;;;;;;;;;;;;;;;20.00;100.00;99779.38;5013327;28;19922;-78
2023/09/18 01:45:04;;;;;;;;;;;;;;;20.00;100.00;99790.91;5027791;28;20370;-77
2023/09/18 01:47:30;;;;;;;;;;;;;;;19.99;100.00;99791.94;5013102;28;19922;-78
2023/09/18 01:49:55;;;;;;;;;;;;;;;20.00;100.00;99774.84;5013106;28;19922;-79
2023/09/18 01:52:21;;;;;;;;;;;;;;;20.01;100.00;99765.78;5013444;28;20000;-78
2023/09/18 01:54:47;;;;;;;;;;;;;;;20.00;100.00;99748.06;5020076;28;19929;-78
2023/09/18 01:57:12;;;;;;;;;;;;;;;20.03;100.00;99753.00;5001730;28;19976;-79
2023/09/18 01:59:38;;;;;;;;;;;;;;;20.04;100.00;99757.34;5004145;28;19921;-79
2023/09/18 02:02:06;;;;;;;;;;;;;;;20.03;100.00;99769.06;5002502;28;19921;-79
2023/09/18 02:04:32;;;;;;;;;;;;;;;19.99;100.00;99762.47;5018667;28;19922;-80
2023/09/18 02:06:57;;;;;;;;;;;;;;;20.00;100.00;99758.78;5003998;28;19948;-77
2023/09/18 02:09:23;;;;;;;;;;;;;;;20.00;100.00;99769.50;5016816;28;19921;-79
2023/09/18 02:11:48;;;;;;;;;;;;;;;19.98;100.00;99768.84;5005119;28;19960;-79
2023/09/18 02:14:14;;;;;;;;;;;;;;;19.94;100.00;99764.94;5001205;28;19925;-78
2023/09/18 02:16:46;;;;;;;;;;;;;;;19.91;100.00;99759.94;5019106;28;19921;-78
2023/09/18 02:19:13;;;;;;;;;;;;;;;19.91;100.00;99762.63;5016605;28;20297;-78
2023/09/18 02:21:39;;;;;;;;;;;;;;;19.85;100.00;99758.06;5004021;28;19929;-78
2023/09/18 02:24:05;;;;;;;;;;;;;;;19.83;100.00;99762.81;5022017;28;19921;-79
2023/09/18 02:26:30;;;;;;;;;;;;;;;19.81;100.00;99769.38;5001312;28;19921;-78
2023/09/18 02:29:00;;;;;;;;;;;;;;;19.81;100.00;99767.53;5025737;28;19967;-79
2023/09/18 02:31:26;;;;;;;;;;;;;;;19.84;100.00;99775.19;5012060;28;19917;-78
2023/09/18 02:33:53;;;;;;;;;;;;;;;19.85;100.00;99774.13;5027228;28;19922;-79
2023/09/18 02:36:18;;;;;;;;;;;;;;;19.80;100.00;99771.22;5012636;28;20031;-78
2023/09/18 02:38:44;;;;;;;;;;;;;;;19.81;100.00;99764.84;5012373;28;20147;-79
2023/09/18 02:41:10;;;;;;;;;;;;;;;19.79;100.00;99756.16;5011840;28;19937;-79
2023/09/18 02:43:37;;;;;;;;;;;;;;;19.82;100.00;99750.44;5012368;28;19921;-79
2023/09/18 02:46:04;;;;;;;;;;;;;;;19.77;100.00;99755.56;5018944;28;19975;-79
2023/09/18 02:48:30;;;;;;;;;;;;;;;19.74;100.00;99747.91;5002336;28;19921;-78
2023/09/18 02:50:56;;;;;;;;;;;;;;;19.66;100.00;99750.75;5016390;28;19921;-78
2023/09/18 02:53:23;;;;;;;;;;;;;;;19.70;100.00;99749.34;5020033;28;20032;-78
2023/09/18 02:55:50;;;;;;;;;;;;;;;19.71;100.00;99753.66;5003711;28;20314;-77
2023/09/18 02:58:16;;;;;;;;;;;;;;;19.66;100.00;99752.59;5011875;28;20440;-78
2023/09/18 03:00:45;;;;;;;;;;;;;;;19.68;100.00;99743.34;5027088;28;19975;-78
2023/09/18 03:03:11;;;;;;;;;;;;;;;19.70;100.00;99743.97;5018273;28;20011;-78
2023/09/18 03:05:37;;;;;;;;;;;;;;;19.71;100.00;99748.31;5016318;28;19952;-78
2023/09/18 03:08:03;;;;;;;;;;;;;;;19.77;100.00;99744.84;5016745;28;19929;-78
2023/09/18 03:10:32;;;;;;;;;;;;;;;19.81;100.00;99743.41;5017153;28;20004;-78
2023/09/18 03:12:58;;;;;;;;;;;;;;;19.79;100.00;99745.47;5016638;28;19991;-79
2023/09/18 03:15:25;;;;;;;;;;;;;;;19.79;100.00;99734.75;5018004;28;20060;-79
2023/09/18 03:17:50;;;;;;;;;;;;;;;19.81;100.00;99732.72;5015585;28;20004;-78
2023/09/18 03:20:16;;;;;;;;;;;;;;;19.77;100.00;99727.94;5018176;28;19968;-79
2023/09/18 03:22:41;;;;;;;;;;;;;;;19.74;100.00;99737.19;5019872;28;19929;-79
2023/09/18 03:25:07;;;;;;;;;;;;;;;19.57;100.00;99736.69;5017791;28;19941;-77
2023/09/18 03:27:32;;;;;;;;;;;;;;;19.59;100.00;99739.19;5016671;28;19929;-77
2023/09/18 03:29:58;;;;;;;;;;;;;;;19.61;100.00;99721.09;5016175;28;19929;-79
2023/09/18 03:32:24;;;;;;;;;;;;;;;19.63;100.00;99719.00;5002671;28;19980;-79
2023/09/18 03:34:53;;;;;;;;;;;;;;;19.69;100.00;99722.75;5014894;28;19922;-78
2023/09/18 03:37:18;;;;;;;;;;;;;;;19.71;100.00;99724.22;5001994;28;19945;-78
2023/09/18 03:39:44;;;;;;;;;;;;;;;19.76;100.00;99729.81;5014746;28;20377;-78
2023/09/18 03:42:09;;;;;;;;;;;;;;;19.79;100.00;99731.28;5017243;28;20278;-79
2023/09/18 03:44:36;;;;;;;;;;;;;;;19.81;100.00;99734.56;5016281;28;20360;-78
2023/09/18 03:47:03;;;;;;;;;;;;;;;19.81;100.00;99732.72;5016212;28;20277;-79
2023/09/18 03:49:29;;;;;;;;;;;;;;;19.86;100.00;99721.41;5001779;28;19921;-78
2023/09/18 03:51:54;;;;;;;;;;;;;;;19.85;100.00;99715.22;5016643;28;19975;-78
2023/09/18 03:54:19;;;;;;;;;;;;;;;19.87;100.00;99715.84;5010619;28;19949;-78
2023/09/18 03:56:46;;;;;;;;;;;;;;;19.89;100.00;99711.13;5007048;28;20005;-78
2023/09/18 03:59:11;;;;;;;;;;;;;;;19.91;100.00;99711.75;5017871;28;19958;-78
2023/09/18 04:01:37;;;;;;;;;;;;;;;19.92;100.00;99705.38;5015568;28;19929;-78
2023/09/18 04:04:02;;;;;;;;;;;;;;;19.88;100.00;99693.41;5016274;28;19957;-78
2023/09/18 04:06:35;;;;;;;;;;;;;;;19.86;100.00;99682.06;5016524;28;19921;-78
2023/09/18 04:09:01;;;;;;;;;;;;;;;19.84;100.00;99672.59;5000760;28;19921;-78
2023/09/18 04:11:26;;;;;;;;;;;;;;;19.84;100.00;99672.59;5016817;28;19918;-78
2023/09/18 04:13:51;;;;;;;;;;;;;;;19.84;100.00;99665.38;4999855;28;20038;-78
2023/09/18 04:16:17;;;;;;;;;;;;;;;19.81;100.00;99668.44;5017712;28;20015;-77
2023/09/18 04:18:43;;;;;;;;;;;;;;;19.79;100.00;99659.78;5014806;28;20011;-78
2023/09/18 04:21:10;;;;;;;;;;;;;;;19.80;100.00;99656.06;5016439;28;19922;-78
2023/09/18 04:23:36;;;;;;;;;;;;;;;19.82;100.00;99653.22;5018916;28;19928;-78
2023/09/18 04:26:02;;;;;;;;;;;;;;;19.81;100.00;99646.19;5017311;28;20024;-78
2023/09/18 04:28:27;;;;;;;;;;;;;;;19.83;100.00;99655.69;5001753;28;20429;-78
2023/09/18 04:30:53;;;;;;;;;;;;;;;19.83;100.00;99661.06;5014856;28;19922;-78
2023/09/18 04:33:21;;;;;;;;;;;;;;;19.82;100.00;99646.00;4998544;28;19926;-78
2023/09/18 04:35:47;;;;;;;;;;;;;;;19.81;100.00;99643.50;5018128;28;19922;-77
2023/09/18 04:38:16;;;;;;;;;;;;;;;19.81;100.00;99652.38;5013925;28;19928;-78
2023/09/18 04:40:43;;;;;;;;;;;;;;;19.71;100.00;99659.97;5002795;28;19991;-79
2023/09/18 04:43:08;;;;;;;;;;;;;;;19.53;100.00;99673.03;5017311;28;20365;-78
2023/09/18 04:45:33;;;;;;;;;;;;;;;19.52;100.00;99660.69;5000766;28;19926;-77
2023/09/18 04:47:59;;;;;;;;;;;;;;;19.57;100.00;99644.84;5015774;28;19922;-77
2023/09/18 04:50:26;;;;;;;;;;;;;;;19.63;100.00;99633.34;5020697;28;20012;-77
2023/09/18 04:52:54;;;;;;;;;;;;;;;19.66;100.00;99646.34;5024734;28;20357;-78
2023/09/18 04:55:19;;;;;;;;;;;;;;;19.69;100.00;99656.66;5017704;28;19922;-79
2023/09/18 04:57:45;;;;;;;;;;;;;;;19.63;100.00;99646.72;5017814;28;19941;-77
2023/09/18 05:00:13;;;;;;;;;;;;;;;19.67;100.00;99633.78;5019353;28;20377;-80
2023/09/18 05:02:38;;;;;;;;;;;;;;;19.71;100.00;99635.88;5024476;28;20028;-83
2023/09/18 05:05:04;;;;;;;;;;;;;;;19.74;100.00;99638.13;5012308;28;20080;-82
2023/09/18 05:07:31;;;;;;;;;;;;;;;19.73;100.00;99628.47;5011616;28;19940;-81
2023/09/18 05:09:56;;;;;;;;;;;;;;;19.77;100.00;99626.22;5012637;28;20452;-78
2023/09/18 05:12:23;;;;;;;;;;;;;;;19.75;100.00;99625.56;5013635;28;20016;-82
2023/09/18 05:14:48;;;;;;;;;;;;;;;19.78;100.00;99626.00;5014457;28;20749;-80
2023/09/18 05:17:15;;;;;;;;;;;;;;;19.79;100.00;99616.94;5013941;28;19929;-81
2023/09/18 05:19:40;;;;;;;;;;;;;;;19.80;100.00;99610.56;5013152;28;19929;-80
2023/09/18 05:22:06;;;;;;;;;;;;;;;19.80;100.00;99607.06;5013229;28;19927;-79
2023/09/18 05:24:32;;;;;;;;;;;;;;;19.83;100.00;99604.00;5013828;28;19921;-79
2023/09/18 05:26:57;;;;;;;;;;;;;;;19.83;100.00;99595.94;5013784;28;20016;-85
2023/09/18 05:29:24;;;;;;;;;;;;;;;19.84;100.00;99582.38;5016166;28;19926;-81
2023/09/18 05:31:49;;;;;;;;;;;;;;;19.79;100.00;99574.09;5013733;28;19931;-82
2023/09/18 05:34:14;;;;;;;;;;;;;;;19.78;100.00;99571.63;5012360;28;19931;-82
2023/09/18 05:36:39;;;;;;;;;;;;;;;19.78;100.00;99561.75;5020120;28;19936;-80
2023/09/18 05:39:07;;;;;;;;;;;;;;;19.79;100.00;99567.94;5008941;28;19936;-81
2023/09/18 05:41:35;;;;;;;;;;;;;;;19.81;100.00;99577.41;5011671;28;20332;-82
2023/09/18 05:44:03;;;;;;;;;;;;;;;19.86;100.00;99569.59;5011944;28;19928;-80
2023/09/18 05:46:29;;;;;;;;;;;;;;;19.88;100.00;99572.91;5013032;28;20324;-81
2023/09/18 05:48:56;;;;;;;;;;;;;;;19.91;100.00;99572.47;5013314;28;19930;-82
2023/09/18 05:51:22;;;;;;;;;;;;;;;19.95;100.00;99557.69;5012846;28;20731;-81
2023/09/18 05:53:47;;;;;;;;;;;;;;;20.01;100.00;99562.22;5020633;28;19921;-81
2023/09/18 05:56:14;;;;;;;;;;;;;;;20.04;100.00;99550.25;5010891;28;19921;-82
2023/09/18 05:58:39;;;;;;;;;;;;;;;20.06;100.00;99537.50;5013034;28;19917;-82
2023/09/18 06:01:07;;;;;;;;;;;;;;;20.09;100.00;99544.31;5011577;28;19929;-82
2023/09/18 06:03:35;;;;;;;;;;;;;;;20.12;100.00;99542.03;5012920;28;20419;-82
2023/09/18 06:06:04;;;;;;;;;;;;;;;20.10;100.00;99552.13;5012175;28;19948;-81
2023/09/18 06:08:30;;;;;;;;;;;;;;;20.15;100.00;99546.16;5012504;28;20369;-82
2023/09/18 06:10:56;;;;;;;;;;;;;;;20.19;100.00;99536.69;5012199;28;20313;-81
2023/09/18 06:13:22;;;;;;;;;;;;;;;20.23;100.00;99532.56;5011857;28;19921;-81
2023/09/18 06:15:47;;;;;;;;;;;;;;;20.25;100.00;99520.63;5012718;28;19921;-79
2023/09/18 06:18:13;;;;;;;;;;;;;;;20.25;100.00;99514.44;5012032;28;20036;-82
2023/09/18 06:20:39;;;;;;;;;;;;;;;20.29;100.00;99521.03;5012318;28;19944;-82
2023/09/18 06:23:04;;;;;;;;;;;;;;;20.29;100.00;99531.75;5012022;28;19991;-82
2023/09/18 06:25:31;;;;;;;;;;;;;;;20.34;100.00;99531.97;5014925;28;19921;-82
2023/09/18 06:27:56;;;;;;;;;;;;;;;20.38;100.00;99535.91;5012073;28;19921;-82
2023/09/18 06:30:22;;;;;;;;;;;;;;;20.38;100.00;99530.56;5011819;28;20051;-80
2023/09/18 06:32:47;;;;;;;;;;;;;;;20.40;100.00;99526.63;5012231;28;19972;-81
2023/09/18 06:35:12;;;;;;;;;;;;;;;20.43;100.00;99523.53;5011854;28;20020;-83
2023/09/18 06:37:38;;;;;;;;;;;;;;;20.48;100.00;99514.88;5012015;28;19921;-81
2023/09/18 06:40:03;;;;;;;;;;;;;;;20.51;100.00;99503.72;5011831;28;20266;-82
2023/09/18 06:42:29;;;;;;;;;;;;;;;20.57;100.00;99508.25;5012612;28;20396;-81
2023/09/18 06:44:58;;;;;;;;;;;;;;;20.60;100.00;99521.25;5012615;28;20052;-81
2023/09/18 06:47:24;;;;;;;;;;;;;;;20.61;100.00;99530.94;5012020;28;20400;-81
2023/09/18 06:49:49;;;;;;;;;;;;;;;20.57;100.00;99535.06;5012062;28;19987;-82
2023/09/18 06:52:15;;;;;;;;;;;;;;;20.60;100.00;99542.69;5023121;28;20348;-81
2023/09/18 06:54:40;;;;;;;;;;;;;;;20.63;100.00;99534.22;5011101;28;19953;-81
2023/09/18 06:57:06;;;;;;;;;;;;;;;20.49;100.00;99543.34;5025489;28;20016;-81
2023/09/18 06:59:33;;;;;;;;;;;;;;;20.53;100.00;99546.41;5002189;28;20298;-81
2023/09/18 07:01:59;;;;;;;;;;;;;;;20.53;100.00;99555.28;5000586;28;19921;-81
2023/09/18 07:04:25;;;;;;;;;;;;;;;20.48;100.00;99565.81;5000051;28;19929;-80
2023/09/18 07:06:51;;;;;;;;;;;;;;;20.29;100.00;99558.53;5007241;28;19922;-81
2023/09/18 07:09:18;;;;;;;;;;;;;;;20.16;100.00;99547.81;5016521;28;19922;-79
2023/09/18 07:11:44;;;;;;;;;;;;;;;20.02;100.00;99546.97;5011809;28;19921;-81
2023/09/18 07:14:09;;;;;;;;;;;;;;;20.02;100.00;99534.41;5010831;28;19928;-80
2023/09/18 07:16:34;;;;;;;;;;;;;;;20.14;100.00;99540.00;5011018;28;19949;-81
2023/09/18 07:19:00;;;;;;;;;;;;;;;20.19;100.00;99528.66;5011157;28;19922;-81
2023/09/18 07:21:25;;;;;;;;;;;;;;;20.22;100.00;99525.56;5010897;28;20423;-81
2023/09/18 07:23:51;;;;;;;;;;;;;;;20.26;100.00;99510.72;5011075;28;19921;-81
2023/09/18 07:26:16;;;;;;;;;;;;;;;20.32;100.00;99500.00;5009544;28;19921;-80
2023/09/18 07:28:44;;;;;;;;;;;;;;;20.40;100.00;99507.03;5010852;28;19922;-81
2023/09/18 07:31:12;;;;;;;;;;;;;;;20.43;100.00;99509.31;5010269;28;19928;-81
2023/09/18 07:33:37;;;;;;;;;;;;;;;20.46;100.00;99506.19;5010915;28;19928;-81
2023/09/18 07:36:03;;;;;;;;;;;;;;;20.52;100.00;99510.72;5010577;28;19921;-82
2023/09/18 07:38:29;;;;;;;;;;;;;;;20.60;100.00;99497.13;5010851;28;19928;-81
2023/09/18 07:40:54;;;;;;;;;;;;;;;20.66;100.00;99501.66;5012632;28;19925;-81
2023/09/18 07:43:20;;;;;;;;;;;;;;;20.67;100.00;99508.66;5030872;28;20313;-81
2023/09/18 07:45:45;;;;;;;;;;;;;;;20.70;100.00;99508.25;5011042;28;20782;-80
2023/09/18 07:48:10;;;;;;;;;;;;;;;20.75;100.00;99500.38;5010202;28;20008;-81
2023/09/18 07:50:36;;;;;;;;;;;;;;;20.78;100.00;99496.47;5010780;28;19928;-81
2023/09/18 07:53:01;;;;;;;;;;;;;;;20.80;100.00;99476.44;5010481;28;19925;-81
2023/09/18 07:55:27;;;;;;;;;;;;;;;20.83;100.00;99488.63;5010420;28;19928;-81
2023/09/18 07:57:53;;;;;;;;;;;;;;;20.87;100.00;99486.31;5010752;28;20321;-81
2023/09/18 08:00:19;;;;;;;;;;;;;;;20.90;100.00;99491.28;5010293;28;19921;-82
2023/09/18 08:02:46;;;;;;;;;;;;;;;20.90;100.00;99499.34;5010042;28;19921;-80
2023/09/18 08:05:11;;;;;;;;;;;;;;;20.86;100.00;99504.28;5009455;28;19937;-77
2023/09/18 08:07:36;;;;;;;;;;;;;;;20.77;100.00;99511.75;5010149;28;19921;-77
2023/09/18 08:10:06;;;;;;;;;;;;;;;20.84;100.00;99509.03;5010320;28;19922;-77
2023/09/18 08:12:32;;;;;;;;;;;;;;;20.88;100.00;99520.16;5009519;28;19957;-77
2023/09/18 08:14:58;;;;;;;;;;;;;;;20.88;100.00;99504.06;5011213;28;20083;-79
2023/09/18 08:17:24;;;;;;;;;;;;;;;20.95;100.00;99515.63;5011319;28;19976;-79
2023/09/18 08:19:50;;;;;;;;;;;;;;;20.88;100.00;99509.44;5009897;28;19926;-79
2023/09/18 08:22:16;;;;;;;;;;;;;;;20.89;100.00;99516.44;5005997;28;20384;-77
2023/09/18 08:24:42;;;;;;;;;;;;;;;20.77;100.00;99517.09;5014326;28;19975;-79
2023/09/18 08:27:07;;;;;;;;;;;;;;;20.85;100.00;99524.91;5013381;28;19925;-78
2023/09/18 08:29:32;;;;;;;;;;;;;;;20.88;100.00;99525.53;5015109;28;19925;-78
2023/09/18 08:31:57;;;;;;;;;;;;;;;20.92;100.00;99521.38;5014069;28;20021;-78
2023/09/18 08:34:23;;;;;;;;;;;;;;;20.99;100.00;99511.47;5014577;28;19921;-79
2023/09/18 08:36:48;;;;;;;;;;;;;;;21.01;100.00;99514.78;5014333;28;19922;-79
2023/09/18 08:39:14;;;;;;;;;;;;;;;21.05;100.00;99508.75;5014510;28;19921;-79
2023/09/18 08:41:42;;;;;;;;;;;;;;;21.15;100.00;99505.66;5014472;28;20424;-78
2023/09/18 08:44:09;;;;;;;;;;;;;;;21.23;100.00;99500.06;5014761;28;19922;-79
2023/09/18 08:46:34;;;;;;;;;;;;;;;21.34;100.00;99504.75;5013987;28;19936;-81
2023/09/18 08:49:00;;;;;;;;;;;;;;;21.38;100.00;99494.44;5017518;28;19993;-79
2023/09/18 08:51:26;;;;;;;;;;;;;;;21.41;100.00;99500.19;5014428;28;19930;-79
2023/09/18 08:53:51;;;;;;;;;;;;;;;21.51;100.00;99505.91;5016544;28;19926;-81
2023/09/18 08:56:17;;;;;;;;;;;;;;;21.55;100.00;99507.16;5028345;28;19922;-79
2023/09/18 08:58:43;;;;;;;;;;;;;;;21.62;100.00;99507.91;5016459;28;19960;-81
2023/09/18 09:01:09;;;;;;;;;;;;;;;21.66;100.00;99502.97;5013290;28;19921;-80
2023/09/18 09:03:41;;;;;;;;;;;;;;;21.69;100.00;99507.88;5029246;28;19925;-81
2023/09/18 09:06:07;;;;;;;;;;;;;;;21.62;100.00;99491.81;5013847;28;19928;-81
2023/09/18 09:08:33;;;;;;;;;;;;;;;21.72;100.00;99482.47;5014563;28;19925;-81
2023/09/18 09:10:58;;;;;;;;;;;;;;;21.78;100.00;99485.13;5014164;28;19928;-79
2023/09/18 09:13:27;;;;;;;;;;;;;;;21.86;100.00;99492.91;5014451;28;19925;-82
2023/09/18 09:15:56;;;;;;;;;;;;;;;21.90;100.00;99482.56;5012847;28;19929;-79
2023/09/18 09:18:21;;;;;;;;;;;;;;;21.93;100.00;99487.47;5013732;28;19928;-81
2023/09/18 09:20:57;;;;;;;;;;;;;;;21.97;100.00;99496.81;5013973;28;20405;-80
2023/09/18 09:23:23;;;;;;;;;;;;;;;21.96;100.00;99503.22;5012606;28;19925;-79
2023/09/18 09:25:48;;;;;;;;;;;;;;;21.91;100.00;99500.34;5019960;28;19922;-80
2023/09/18 09:28:14;;;;;;;;;;;;;;;21.94;100.00;99511.44;5014552;28;19988;-82
2023/09/18 09:30:39;;;;;;;;;;;;;;;21.91;100.00;99500.34;5015054;28;20423;-84
2023/09/18 09:33:05;;;;;;;;;;;;;;;21.96;100.00;99503.22;5013899;28;20012;-84
2023/09/18 09:35:33;;;;;;;;;;;;;;;22.04;100.00;99493.00;5023191;28;19922;-83
2023/09/18 09:38:19;;;;;;;;;;;;;;;22.09;100.00;99486.97;5022503;28;20008;-83
2023/09/18 09:40:45;;;;;;;;;;;;;;;22.15;100.00;99482.63;5027989;28;19925;-84
2023/09/18 09:43:13;;;;;;;;;;;;;;;22.27;100.00;99478.97;5023599;28;20374;-86
2023/09/18 09:45:39;;;;;;;;;;;;;;;22.28;100.00;99469.88;5014679;28;19965;-85
2023/09/18 09:48:06;;;;;;;;;;;;;;;22.33;100.00;99472.72;5015069;28;19925;-87
2023/09/18 09:50:32;;;;;;;;;;;;;;;22.40;100.00;99478.03;5014110;28;19929;-83
2023/09/18 09:52:57;;;;;;;;;;;;;;;22.46;100.00;99477.97;5013580;28;19921;-80
2023/09/18 09:55:30;;;;;;;;;;;;;;;22.48;100.00;99482.31;5013448;28;20403;-81
2023/09/18 09:57:59;;;;;;;;;;;;;;;22.43;100.00;99481.13;5015745;28;19979;-85
2023/09/18 10:00:36;;;;;;;;;;;;;;;22.45;100.00;99486.25;5015517;28;19971;-85
2023/09/18 10:03:03;;;;;;;;;;;;;;;22.44;100.00;99490.00;5015157;28;20016;-86
2023/09/18 10:05:30;;;;;;;;;;;;;;;22.39;100.00;99497.91;5017823;28;19948;-86
2023/09/18 10:07:59;;;;;;;;;;;;;;;22.35;100.00;99492.16;5030732;28;19940;-84
2023/09/18 10:10:32;;;;;;;;;;;;;;;22.37;100.00;99494.63;5013055;28;19980;-83
2023/09/18 10:13:04;;;;;;;;;;;;;;;22.45;100.00;99491.63;5010153;28;19917;-85
2023/09/18 10:15:33;;;;;;;;;;;;;;;22.57;100.00;99489.03;5012729;28;19951;-85
2023/09/18 10:18:00;;;;;;;;;;;;;;;22.68;100.00;99488.34;5012547;28;19940;-85
2023/09/18 10:20:26;;;;;;;;;;;;;;;22.66;100.00;99487.72;5012879;28;19929;-84
2023/09/18 10:22:53;;;;;;;;;;;;;;;22.66;100.00;99476.97;5012947;28;19917;-85
2023/09/18 10:25:24;;;;;;;;;;;;;;;22.67;100.00;99484.00;5027431;28;20326;-83
2023/09/18 10:27:53;;;;;;;;;;;;;;;22.63;100.00;99483.59;5009108;28;19976;-85
2023/09/18 10:30:19;;;;;;;;;;;;;;;22.55;100.00;99486.59;5012088;28;20028;-85
2023/09/18 10:32:48;;;;;;;;;;;;;;;22.54;100.00;99473.38;5012291;28;19929;-85
2023/09/18 10:35:15;;;;;;;;;;;;;;;22.51;100.00;99479.16;5012182;28;20297;-86
2023/09/18 10:37:45;;;;;;;;;;;;;;;22.51;100.00;99476.47;5012680;28;20007;-85
2023/09/18 10:40:10;;;;;;;;;;;;;;;22.54;100.00;99473.38;5012586;28;19945;-85
2023/09/18 10:42:38;;;;;;;;;;;;;;;22.54;100.00;99468.00;5015177;28;20374;-85
2023/09/18 10:45:04;;;;;;;;;;;;;;;22.53;100.00;99460.97;5012000;28;20394;-86
2023/09/18 10:47:30;;;;;;;;;;;;;;;22.45;100.00;99457.50;5011316;28;19921;-85
2023/09/18 10:49:56;;;;;;;;;;;;;;;22.39;100.00;99469.16;5011861;28;19925;-84
2023/09/18 10:52:21;;;;;;;;;;;;;;;22.36;100.00;99464.22;5011450;28;20025;-85
2023/09/18 10:54:46;;;;;;;;;;;;;;;22.37;100.00;99468.56;5011860;28;20472;-85
2023/09/18 10:57:12;;;;;;;;;;;;;;;22.35;100.00;99465.25;5014052;28;19928;-86
2023/09/18 10:59:45;;;;;;;;;;;;;;;22.37;100.00;99473.94;5017465;28;19928;-86
2023/09/18 11:02:13;;;;;;;;;;;;;;;22.35;100.00;99476.00;5017898;28;19922;-85
2023/09/18 11:04:41;;;;;;;;;;;;;;;22.35;100.00;99476.00;5022442;28;19921;-86
2023/09/18 11:07:06;;;;;;;;;;;;;;;22.35;100.00;99475.19;5017265;28;20373;-84
2023/09/18 11:09:39;;;;;;;;;;;;;;;22.39;100.00;99465.63;5012961;28;19928;-85
2023/09/18 11:12:05;;;;;;;;;;;;;;;22.40;100.00;99462.72;5015698;28;20109;-88
2023/09/18 11:14:44;;;;;;;;;;;;;;;22.41;100.00;99456.31;5013470;28;19976;-85
2023/09/18 11:17:30;;;;;;;;;;;;;;;22.42;100.00;99449.06;5013579;28;19917;-85
2023/09/18 11:20:02;;;;;;;;;;;;;;;22.48;100.00;99436.59;5010886;28;19925;-87
2023/09/18 11:22:28;;;;;;;;;;;;;;;22.48;100.00;99428.53;5015066;28;19917;-86
2023/09/18 11:24:54;;;;;;;;;;;;;;;22.50;100.00;99421.09;5022591;28;20016;-85
2023/09/18 11:27:24;;;;;;;;;;;;;;;22.50;100.00;99419.22;5031058;28;19963;-85
2023/09/18 11:29:52;;;;;;;;;;;;;;;22.46;100.00;99401.88;5024647;28;19921;-84
2023/09/18 11:32:37;;;;;;;;;;;;;;;22.46;100.00;99397.31;5012265;28;20355;-87
2023/09/18 11:35:08;;;;;;;;;;;;;;;22.48;100.00;99390.91;5012962;28;19922;-86
2023/09/18 11:37:34;;;;;;;;;;;;;;;22.45;100.00;99390.28;5021512;28;19976;-84
2023/09/18 11:40:00;;;;;;;;;;;;;;;22.45;100.00;99401.03;5018814;28;19929;-86
2023/09/18 11:42:26;;;;;;;;;;;;;;;22.45;100.00;99395.66;5012511;28;19925;-85
2023/09/18 11:44:52;;;;;;;;;;;;;;;22.37;100.00;99392.47;5013351;28;19997;-85
2023/09/18 11:47:22;;;;;;;;;;;;;;;22.37;100.00;99398.66;5012874;28;19965;-86
2023/09/18 11:49:54;;;;;;;;;;;;;;;22.38;100.00;99384.16;5008900;28;20423;-86
2023/09/18 11:52:24;;;;;;;;;;;;;;;22.39;100.00;99387.66;5008594;28;19957;-84
2023/09/18 11:54:50;;;;;;;;;;;;;;;22.37;100.00;99390.59;5008825;28;19925;-85
2023/09/18 11:57:16;;;;;;;;;;;;;;;22.36;100.00;99386.25;5011653;28;19926;-85
2023/09/18 11:59:42;;;;;;;;;;;;;;;22.35;100.00;99384.63;5015841;28;19936;-86
2023/09/18 12:02:08;;;;;;;;;;;;;;;22.33;100.00;99381.31;5015660;28;19921;-86
2023/09/18 12:04:35;;;;;;;;;;;;;;;22.31;100.00;99364.59;5014416;28;19925;-86
2023/09/18 12:07:00;;;;;;;;;;;;;;;22.32;100.00;99373.50;5014781;28;20381;-86
2023/09/18 12:09:29;;;;;;;;;;;;;;;22.33;100.00;99381.31;5015021;28;19949;-85
2023/09/18 12:11:57;;;;;;;;;;;;;;;22.33;100.00;99375.94;5018495;28;20129;-85
2023/09/18 12:14:22;;;;;;;;;;;;;;;22.31;100.00;99372.66;5014465;28;20317;-87
2023/09/18 12:16:50;;;;;;;;;;;;;;;22.31;100.00;99367.28;5014820;28;20016;-85
2023/09/18 12:19:18;;;;;;;;;;;;;;;22.30;100.00;99370.19;5014404;28;19926;-86
2023/09/18 12:21:46;;;;;;;;;;;;;;;22.31;100.00;99367.28;5014891;28;19921;-86
2023/09/18 12:24:15;;;;;;;;;;;;;;;22.33;100.00;99364.34;5014315;28;19936;-86
2023/09/18 12:26:41;;;;;;;;;;;;;;;22.31;100.00;99361.91;5014464;28;19925;-86
2023/09/18 12:29:07;;;;;;;;;;;;;;;22.32;100.00;99357.38;5013047;28;20434;-86
2023/09/18 12:31:33;;;;;;;;;;;;;;;22.35;100.00;99362.28;5014923;28;19925;-88